sensor_id;sensor_type;location;lat;lon;timestamp;pressure;altitude;pressure_sealevel;temperature;humidity
10310;BME280;5200;43.236;27.986;2022-09-24T00:01:52;100244.97;;;9.39;91.71
10310;BME280;5200;43.236;27.986;2022-09-24T00:04:23;100265.81;;;9.52;92.08
10310;BME280;5200;43.236;27.986;2022-09-24T00:06:52;100264.41;;;9.48;92.39
10310;BME280;5200;43.236;27.986;2022-09-24T00:09:20;100266.41;;;9.56;92.14
10310;BME280;5200;43.236;27.986;2022-09-24T00:11:48;100248.06;;;9.44;92.40
10310;BME280;5200;43.236;27.986;2022-09-24T00:14:16;100227.69;;;9.37;92.55
10310;BME280;5200;43.236;27.986;2022-09-24T00:16:44;100236.63;;;9.45;92.46
10310;BME280;5200;43.236;27.986;2022-09-24T00:19:12;100226.47;;;9.41;92.23
10310;BME280;5200;43.236;27.986;2022-09-24T00:21:41;100219.53;;;9.40;92.82
10310;BME280;5200;43.236;27.986;2022-09-24T00:24:11;100251.22;;;9.59;92.38
10310;BME280;5200;43.236;27.986;2022-09-24T00:27:00;100251.22;;;9.59;92.40
10310;BME280;5200;43.236;27.986;2022-09-24T00:29:27;100243.59;;;9.56;92.28
10310;BME280;5200;43.236;27.986;2022-09-24T00:31:55;100225.69;;;9.50;92.08
10310;BME280;5200;43.236;27.986;2022-09-24T00:34:22;100240.34;;;9.64;91.65
10310;BME280;5200;43.236;27.986;2022-09-24T00:36:50;100250.25;;;9.71;91.44
10310;BME280;5200;43.236;27.986;2022-09-24T00:39:18;100237.16;;;9.60;91.54
10310;BME280;5200;43.236;27.986;2022-09-24T00:41:45;100240.22;;;9.65;91.28
10310;BME280;5200;43.236;27.986;2022-09-24T00:47:27;100247.13;;;9.66;91.56
10310;BME280;5200;43.236;27.986;2022-09-24T00:50:00;100243.94;;;9.63;91.60
10310;BME280;5200;43.236;27.986;2022-09-24T00:52:29;100245.47;;;9.65;91.59
10310;BME280;5200;43.236;27.986;2022-09-24T00:54:56;100240.72;;;9.59;92.22
10310;BME280;5200;43.236;27.986;2022-09-24T00:57:24;100237.63;;;9.54;92.40
10310;BME280;5200;43.236;27.986;2022-09-24T00:59:52;100235.97;;;9.53;92.42
10310;BME280;5200;43.236;27.986;2022-09-24T01:02:20;100233.91;;;9.57;91.87
10310;BME280;5200;43.236;27.986;2022-09-24T01:04:48;100238.09;;;9.59;92.58
10310;BME280;5200;43.236;27.986;2022-09-24T01:07:15;100236.88;;;9.63;92.38
10310;BME280;5200;43.236;27.986;2022-09-24T01:09:43;100239.63;;;9.62;92.56
10310;BME280;5200;43.236;27.986;2022-09-24T01:12:16;100232.00;;;9.59;93.05
10310;BME280;5200;43.236;27.986;2022-09-24T01:14:57;100217.16;;;9.48;92.99
10310;BME280;5200;43.236;27.986;2022-09-24T01:17:33;100231.44;;;9.55;93.37
10310;BME280;5200;43.236;27.986;2022-09-24T01:23:44;100241.31;;;9.63;93.43
10310;BME280;5200;43.236;27.986;2022-09-24T01:26:29;100214.53;;;9.69;92.67
10310;BME280;5200;43.236;27.986;2022-09-24T01:29:15;100196.66;;;9.63;91.64
10310;BME280;5200;43.236;27.986;2022-09-24T01:31:51;100234.88;;;9.88;90.63
10310;BME280;5200;43.236;27.986;2022-09-24T01:34:23;100235.38;;;9.82;90.52
10310;BME280;5200;43.236;27.986;2022-09-24T01:36:53;100243.31;;;9.70;90.81
10310;BME280;5200;43.236;27.986;2022-09-24T01:39:23;100229.72;;;9.65;90.72
10310;BME280;5200;43.236;27.986;2022-09-24T01:41:50;100238.31;;;9.67;90.88
10310;BME280;5200;43.236;27.986;2022-09-24T01:44:19;100238.56;;;9.64;90.57
10310;BME280;5200;43.236;27.986;2022-09-24T01:46:46;100231.88;;;9.60;90.88
10310;BME280;5200;43.236;27.986;2022-09-24T01:49:14;100238.56;;;9.64;90.52
10310;BME280;5200;43.236;27.986;2022-09-24T01:51:44;100234.72;;;9.68;90.44
10310;BME280;5200;43.236;27.986;2022-09-24T01:54:17;100224.00;;;9.60;90.31
10310;BME280;5200;43.236;27.986;2022-09-24T01:56:49;100229.00;;;9.63;90.44
10310;BME280;5200;43.236;27.986;2022-09-24T01:59:24;100222.94;;;9.63;91.07
10310;BME280;5200;43.236;27.986;2022-09-24T02:01:57;100227.53;;;9.70;90.41
10310;BME280;5200;43.236;27.986;2022-09-24T02:04:27;100223.25;;;9.69;90.08
10310;BME280;5200;43.236;27.986;2022-09-24T02:06:59;100216.56;;;9.65;90.02
10310;BME280;5200;43.236;27.986;2022-09-24T02:09:32;100223.72;;;9.74;89.82
10310;BME280;5200;43.236;27.986;2022-09-24T02:12:04;100221.53;;;9.80;89.72
10310;BME280;5200;43.236;27.986;2022-09-24T02:14:37;100233.19;;;9.87;89.37
10310;BME280;5200;43.236;27.986;2022-09-24T02:17:08;100227.50;;;9.82;89.06
10310;BME280;5200;43.236;27.986;2022-09-24T02:19:37;100230.44;;;9.88;89.01
10310;BME280;5200;43.236;27.986;2022-09-24T02:22:05;100240.69;;;9.91;88.96
10310;BME280;5200;43.236;27.986;2022-09-24T02:24:38;100239.75;;;9.92;89.04
10310;BME280;5200;43.236;27.986;2022-09-24T02:27:06;100222.94;;;9.84;89.52
10310;BME280;5200;43.236;27.986;2022-09-24T02:29:35;100204.59;;;9.72;89.25
10310;BME280;5200;43.236;27.986;2022-09-24T02:32:04;100224.09;;;9.91;88.82
10310;BME280;5200;43.236;27.986;2022-09-24T02:34:34;100227.44;;;9.93;88.59
10310;BME280;5200;43.236;27.986;2022-09-24T02:37:06;100198.53;;;9.72;88.21
10310;BME280;5200;43.236;27.986;2022-09-24T02:39:33;100215.78;;;9.86;88.08
10310;BME280;5200;43.236;27.986;2022-09-24T02:42:01;100239.94;;;10.01;88.24
10310;BME280;5200;43.236;27.986;2022-09-24T02:44:30;100235.50;;;10.01;87.71
10310;BME280;5200;43.236;27.986;2022-09-24T02:46:58;100245.78;;;10.04;87.65
10310;BME280;5200;43.236;27.986;2022-09-24T02:49:25;100236.59;;;9.99;87.51
10310;BME280;5200;43.236;27.986;2022-09-24T02:51:52;100244.91;;;10.04;87.49
10310;BME280;5200;43.236;27.986;2022-09-24T02:54:20;100251.03;;;10.04;87.15
10310;BME280;5200;43.236;27.986;2022-09-24T02:56:48;100246.53;;;9.95;87.63
10310;BME280;5200;43.236;27.986;2022-09-24T02:59:15;100241.78;;;9.89;87.94
10310;BME280;5200;43.236;27.986;2022-09-24T03:01:42;100245.38;;;9.88;87.81
10310;BME280;5200;43.236;27.986;2022-09-24T03:04:11;100241.84;;;9.78;88.12
10310;BME280;5200;43.236;27.986;2022-09-24T03:06:38;100256.66;;;9.79;88.67
10310;BME280;5200;43.236;27.986;2022-09-24T03:09:05;100253.31;;;9.77;88.74
10310;BME280;5200;43.236;27.986;2022-09-24T03:11:32;100256.66;;;9.79;88.96
10310;BME280;5200;43.236;27.986;2022-09-24T03:14:00;100254.16;;;9.77;88.54
10310;BME280;5200;43.236;27.986;2022-09-24T03:16:27;100242.47;;;9.70;88.77
10310;BME280;5200;43.236;27.986;2022-09-24T03:18:54;100264.16;;;9.83;89.20
10310;BME280;5200;43.236;27.986;2022-09-24T03:21:22;100261.91;;;9.79;89.01
10310;BME280;5200;43.236;27.986;2022-09-24T03:23:49;100249.50;;;9.81;88.81
10310;BME280;5200;43.236;27.986;2022-09-24T03:26:16;100258.06;;;9.83;89.04
10310;BME280;5200;43.236;27.986;2022-09-24T03:28:43;100264.00;;;9.85;89.44
10310;BME280;5200;43.236;27.986;2022-09-24T03:31:11;100259.72;;;9.84;89.14
10310;BME280;5200;43.236;27.986;2022-09-24T03:33:38;100261.06;;;9.78;89.35
10310;BME280;5200;43.236;27.986;2022-09-24T03:36:07;100254.25;;;9.76;89.32
10310;BME280;5200;43.236;27.986;2022-09-24T03:38:37;100263.00;;;9.76;89.87
10310;BME280;5200;43.236;27.986;2022-09-24T03:41:05;100254.41;;;9.74;89.43
10310;BME280;5200;43.236;27.986;2022-09-24T03:43:32;100265.75;;;9.74;89.82
10310;BME280;5200;43.236;27.986;2022-09-24T03:45:59;100253.09;;;9.68;89.34
10310;BME280;5200;43.236;27.986;2022-09-24T03:48:26;100271.25;;;9.71;89.21
10310;BME280;5200;43.236;27.986;2022-09-24T03:50:54;100278.16;;;9.72;88.57
10310;BME280;5200;43.236;27.986;2022-09-24T03:53:21;100272.09;;;9.72;88.81
10310;BME280;5200;43.236;27.986;2022-09-24T03:55:52;100270.09;;;9.64;89.20
10310;BME280;5200;43.236;27.986;2022-09-24T03:58:19;100263.69;;;9.57;89.32
10310;BME280;5200;43.236;27.986;2022-09-24T04:00:46;100268.06;;;9.57;89.30
10310;BME280;5200;43.236;27.986;2022-09-24T04:03:13;100276.66;;;9.59;89.71
10310;BME280;5200;43.236;27.986;2022-09-24T04:05:41;100263.06;;;9.53;89.70
10310;BME280;5200;43.236;27.986;2022-09-24T04:08:08;100270.31;;;9.61;89.32
10310;BME280;5200;43.236;27.986;2022-09-24T04:10:35;100272.66;;;9.76;88.35
10310;BME280;5200;43.236;27.986;2022-09-24T04:13:03;100275.34;;;9.85;87.95
10310;BME280;5200;43.236;27.986;2022-09-24T04:15:30;100277.13;;;9.96;86.96
10310;BME280;5200;43.236;27.986;2022-09-24T04:17:58;100289.13;;;10.10;85.89
10310;BME280;5200;43.236;27.986;2022-09-24T04:20:26;100299.75;;;10.08;86.03
10310;BME280;5200;43.236;27.986;2022-09-24T04:22:56;100293.59;;;9.98;85.98
10310;BME280;5200;43.236;27.986;2022-09-24T04:25:24;100298.13;;;9.96;86.00
10310;BME280;5200;43.236;27.986;2022-09-24T04:27:52;100309.25;;;10.00;85.99
10310;BME280;5200;43.236;27.986;2022-09-24T04:30:21;100317.38;;;9.97;86.04
10310;BME280;5200;43.236;27.986;2022-09-24T04:32:48;100329.69;;;9.96;86.59
10310;BME280;5200;43.236;27.986;2022-09-24T04:35:16;100335.78;;;10.18;86.18
10310;BME280;5200;43.236;27.986;2022-09-24T04:37:43;100335.56;;;10.42;85.96
10310;BME280;5200;43.236;27.986;2022-09-24T04:40:11;100338.66;;;10.68;83.76
10310;BME280;5200;43.236;27.986;2022-09-24T04:42:38;100341.19;;;10.79;81.57
10310;BME280;5200;43.236;27.986;2022-09-24T04:45:05;100331.88;;;10.96;80.50
10310;BME280;5200;43.236;27.986;2022-09-24T04:47:35;100336.41;;;11.25;79.74
10310;BME280;5200;43.236;27.986;2022-09-24T04:50:06;100331.47;;;11.51;78.03
10310;BME280;5200;43.236;27.986;2022-09-24T04:52:33;100330.28;;;11.74;77.19
10310;BME280;5200;43.236;27.986;2022-09-24T04:55:00;100330.72;;;11.99;75.67
10310;BME280;5200;43.236;27.986;2022-09-24T04:57:28;100321.13;;;12.27;74.70
10310;BME280;5200;43.236;27.986;2022-09-24T05:00:01;100336.94;;;12.46;73.15
10310;BME280;5200;43.236;27.986;2022-09-24T05:02:29;100332.88;;;12.62;72.00
10310;BME280;5200;43.236;27.986;2022-09-24T05:04:57;100333.06;;;12.88;70.82
10310;BME280;5200;43.236;27.986;2022-09-24T05:07:24;100327.13;;;13.14;70.20
10310;BME280;5200;43.236;27.986;2022-09-24T05:09:51;100323.91;;;13.20;69.08
10310;BME280;5200;43.236;27.986;2022-09-24T05:12:18;100332.44;;;13.41;67.96
10310;BME280;5200;43.236;27.986;2022-09-24T05:14:45;100332.47;;;13.59;67.03
10310;BME280;5200;43.236;27.986;2022-09-24T05:17:12;100324.50;;;13.69;66.33
10310;BME280;5200;43.236;27.986;2022-09-24T05:19:39;100303.72;;;13.74;65.97
10310;BME280;5200;43.236;27.986;2022-09-24T05:22:08;100324.25;;;13.80;65.64
10310;BME280;5200;43.236;27.986;2022-09-24T05:24:34;100322.16;;;14.02;65.43
10310;BME280;5200;43.236;27.986;2022-09-24T05:27:01;100310.34;;;14.14;64.59
10310;BME280;5200;43.236;27.986;2022-09-24T05:29:34;100326.34;;;14.30;64.17
10310;BME280;5200;43.236;27.986;2022-09-24T05:32:02;100325.56;;;14.38;64.25
10310;BME280;5200;43.236;27.986;2022-09-24T05:34:30;100321.38;;;14.53;63.13
10310;BME280;5200;43.236;27.986;2022-09-24T05:36:57;100325.72;;;14.54;63.48
10310;BME280;5200;43.236;27.986;2022-09-24T05:39:26;100334.25;;;14.74;62.47
10310;BME280;5200;43.236;27.986;2022-09-24T05:41:53;100327.00;;;14.76;62.32
10310;BME280;5200;43.236;27.986;2022-09-24T05:44:20;100333.06;;;14.95;62.39
10310;BME280;5200;43.236;27.986;2022-09-24T05:46:47;100340.41;;;15.09;61.81
10310;BME280;5200;43.236;27.986;2022-09-24T05:49:13;100339.50;;;15.27;61.93
10310;BME280;5200;43.236;27.986;2022-09-24T05:51:40;100328.78;;;15.44;60.99
10310;BME280;5200;43.236;27.986;2022-09-24T05:54:07;100344.25;;;15.65;59.98
10310;BME280;5200;43.236;27.986;2022-09-24T05:56:36;100339.97;;;15.73;60.52
10310;BME280;5200;43.236;27.986;2022-09-24T05:59:03;100342.63;;;15.73;59.35
10310;BME280;5200;43.236;27.986;2022-09-24T06:01:30;100330.84;;;15.67;59.85
10310;BME280;5200;43.236;27.986;2022-09-24T06:03:57;100349.94;;;15.79;60.35
10310;BME280;5200;43.236;27.986;2022-09-24T06:06:25;100362.25;;;15.96;59.65
10310;BME280;5200;43.236;27.986;2022-09-24T06:08:53;100365.91;;;16.20;58.73
10310;BME280;5200;43.236;27.986;2022-09-24T06:11:20;100365.91;;;16.28;58.27
10310;BME280;5200;43.236;27.986;2022-09-24T06:13:48;100374.03;;;16.26;58.45
10310;BME280;5200;43.236;27.986;2022-09-24T06:16:16;100368.91;;;16.49;57.93
10310;BME280;5200;43.236;27.986;2022-09-24T06:18:43;100382.03;;;16.51;57.53
10310;BME280;5200;43.236;27.986;2022-09-24T06:21:11;100383.81;;;16.75;57.33
10310;BME280;5200;43.236;27.986;2022-09-24T06:23:39;100380.81;;;16.78;55.93
10310;BME280;5200;43.236;27.986;2022-09-24T06:26:10;100393.47;;;16.84;55.52
10310;BME280;5200;43.236;27.986;2022-09-24T06:28:37;100378.97;;;16.95;55.94
10310;BME280;5200;43.236;27.986;2022-09-24T06:31:07;100384.78;;;16.99;55.59
10310;BME280;5200;43.236;27.986;2022-09-24T06:33:36;100394.41;;;17.08;55.69
10310;BME280;5200;43.236;27.986;2022-09-24T06:36:03;100407.13;;;17.29;56.02
10310;BME280;5200;43.236;27.986;2022-09-24T06:38:31;100405.41;;;17.44;54.82
10310;BME280;5200;43.236;27.986;2022-09-24T06:40:58;100410.00;;;17.59;54.54
10310;BME280;5200;43.236;27.986;2022-09-24T06:43:26;100399.13;;;17.68;54.58
10310;BME280;5200;43.236;27.986;2022-09-24T06:45:56;100398.44;;;17.74;54.81
10310;BME280;5200;43.236;27.986;2022-09-24T06:48:26;100399.72;;;17.87;53.55
10310;BME280;5200;43.236;27.986;2022-09-24T06:50:53;100390.41;;;17.91;52.94
10310;BME280;5200;43.236;27.986;2022-09-24T06:53:21;100399.44;;;17.82;52.23
10310;BME280;5200;43.236;27.986;2022-09-24T06:55:48;100400.44;;;17.81;52.01
10310;BME280;5200;43.236;27.986;2022-09-24T06:58:16;100416.72;;;17.86;51.65
10310;BME280;5200;43.236;27.986;2022-09-24T07:00:50;100413.25;;;18.08;52.41
10310;BME280;5200;43.236;27.986;2022-09-24T07:03:19;100412.72;;;18.36;50.31
10310;BME280;5200;43.236;27.986;2022-09-24T07:05:47;100416.81;;;18.24;50.21
10310;BME280;5200;43.236;27.986;2022-09-24T07:08:14;100421.31;;;18.23;50.09
10310;BME280;5200;43.236;27.986;2022-09-24T07:10:42;100411.47;;;18.24;49.76
10310;BME280;5200;43.236;27.986;2022-09-24T07:13:10;100419.75;;;18.29;50.17
10310;BME280;5200;43.236;27.986;2022-09-24T07:15:38;100425.63;;;18.47;50.24
10310;BME280;5200;43.236;27.986;2022-09-24T07:18:05;100420.56;;;18.52;48.72
10310;BME280;5200;43.236;27.986;2022-09-24T07:20:32;100422.00;;;18.40;48.85
10310;BME280;5200;43.236;27.986;2022-09-24T07:23:03;100411.00;;;18.43;50.47
10310;BME280;5200;43.236;27.986;2022-09-24T07:25:31;100407.59;;;18.34;48.71
10310;BME280;5200;43.236;27.986;2022-09-24T07:28:02;100419.88;;;18.35;49.92
10310;BME280;5200;43.236;27.986;2022-09-24T07:30:29;100428.16;;;18.41;49.89
10310;BME280;5200;43.236;27.986;2022-09-24T07:32:56;100426.69;;;18.38;50.00
10310;BME280;5200;43.236;27.986;2022-09-24T07:35:23;100418.09;;;18.51;50.33
10310;BME280;5200;43.236;27.986;2022-09-24T07:37:56;100416.19;;;18.59;50.29
10310;BME280;5200;43.236;27.986;2022-09-24T07:40:25;100415.47;;;18.66;49.88
10310;BME280;5200;43.236;27.986;2022-09-24T07:42:53;100425.19;;;18.82;50.10
10310;BME280;5200;43.236;27.986;2022-09-24T07:45:20;100427.88;;;18.96;49.86
10310;BME280;5200;43.236;27.986;2022-09-24T07:47:50;100427.59;;;19.21;49.70
10310;BME280;5200;43.236;27.986;2022-09-24T07:50:21;100426.97;;;19.49;48.89
10310;BME280;5200;43.236;27.986;2022-09-24T07:52:49;100431.00;;;19.59;48.58
10310;BME280;5200;43.236;27.986;2022-09-24T07:55:16;100428.59;;;19.64;47.73
10310;BME280;5200;43.236;27.986;2022-09-24T07:57:46;100424.28;;;19.78;47.87
10310;BME280;5200;43.236;27.986;2022-09-24T08:00:15;100432.72;;;19.97;46.92
10310;BME280;5200;43.236;27.986;2022-09-24T08:02:43;100438.31;;;20.02;47.46
10310;BME280;5200;43.236;27.986;2022-09-24T08:05:10;100441.75;;;20.17;47.05
10310;BME280;5200;43.236;27.986;2022-09-24T08:07:38;100444.56;;;20.31;45.74
10310;BME280;5200;43.236;27.986;2022-09-24T08:10:05;100441.00;;;20.23;45.50
10310;BME280;5200;43.236;27.986;2022-09-24T08:12:32;100438.63;;;20.14;45.90
10310;BME280;5200;43.236;27.986;2022-09-24T08:15:00;100442.78;;;20.16;45.27
10310;BME280;5200;43.236;27.986;2022-09-24T08:17:27;100442.00;;;20.22;45.22
10310;BME280;5200;43.236;27.986;2022-09-24T08:19:54;100447.88;;;20.33;45.13
10310;BME280;5200;43.236;27.986;2022-09-24T08:22:21;100443.28;;;20.48;45.32
10310;BME280;5200;43.236;27.986;2022-09-24T08:24:49;100440.88;;;20.75;44.66
10310;BME280;5200;43.236;27.986;2022-09-24T08:27:17;100435.88;;;20.93;44.96
10310;BME280;5200;43.236;27.986;2022-09-24T08:29:44;100437.75;;;20.99;42.78
10310;BME280;5200;43.236;27.986;2022-09-24T08:32:13;100431.28;;;20.87;43.01
10310;BME280;5200;43.236;27.986;2022-09-24T08:34:40;100428.38;;;20.82;43.25
10310;BME280;5200;43.236;27.986;2022-09-24T08:37:07;100428.41;;;20.60;42.83
10310;BME280;5200;43.236;27.986;2022-09-24T08:39:34;100442.38;;;20.41;42.52
10310;BME280;5200;43.236;27.986;2022-09-24T08:42:02;100437.19;;;20.33;43.82
10310;BME280;5200;43.236;27.986;2022-09-24T08:44:35;100431.56;;;20.49;44.89
10310;BME280;5200;43.236;27.986;2022-09-24T08:47:33;100438.53;;;20.65;43.47
10310;BME280;5200;43.236;27.986;2022-09-24T08:50:07;100419.59;;;20.66;42.70
10310;BME280;5200;43.236;27.986;2022-09-24T08:52:56;100428.22;;;20.62;42.26
10310;BME280;5200;43.236;27.986;2022-09-24T08:55:30;100425.31;;;20.85;43.17
10310;BME280;5200;43.236;27.986;2022-09-24T09:00:54;100423.03;;;21.51;42.77
10310;BME280;5200;43.236;27.986;2022-09-24T09:03:30;100414.03;;;21.66;40.27
10310;BME280;5200;43.236;27.986;2022-09-24T09:06:02;100424.78;;;21.72;41.31
10310;BME280;5200;43.236;27.986;2022-09-24T09:08:39;100421.50;;;21.77;39.27
10310;BME280;5200;43.236;27.986;2022-09-24T09:11:13;100415.97;;;21.85;39.46
10310;BME280;5200;43.236;27.986;2022-09-24T09:13:44;100418.47;;;21.93;40.74
10310;BME280;5200;43.236;27.986;2022-09-24T09:16:21;100413.59;;;21.56;39.99
10310;BME280;5200;43.236;27.986;2022-09-24T09:18:54;100417.06;;;21.49;40.45
10310;BME280;5200;43.236;27.986;2022-09-24T09:21:28;100403.06;;;21.47;38.22
10310;BME280;5200;43.236;27.986;2022-09-24T09:23:58;100419.31;;;21.11;40.26
10310;BME280;5200;43.236;27.986;2022-09-24T09:26:27;100418.34;;;21.25;41.48
10310;BME280;5200;43.236;27.986;2022-09-24T09:28:57;100405.41;;;21.64;41.50
10310;BME280;5200;43.236;27.986;2022-09-24T09:31:35;100408.00;;;22.19;39.47
10310;BME280;5200;43.236;27.986;2022-09-24T09:34:25;100409.72;;;22.66;37.91
10310;BME280;5200;43.236;27.986;2022-09-24T09:37:07;100407.19;;;23.11;38.35
10310;BME280;5200;43.236;27.986;2022-09-24T09:39:44;100405.91;;;23.34;36.49
10310;BME280;5200;43.236;27.986;2022-09-24T09:42:27;100415.28;;;23.56;36.23
10310;BME280;5200;43.236;27.986;2022-09-24T09:44:59;100403.25;;;23.79;34.84
10310;BME280;5200;43.236;27.986;2022-09-24T09:47:35;100407.34;;;23.88;33.06
10310;BME280;5200;43.236;27.986;2022-09-24T09:50:12;100408.19;;;23.82;33.43
10310;BME280;5200;43.236;27.986;2022-09-24T09:52:43;100404.31;;;23.71;33.82
10310;BME280;5200;43.236;27.986;2022-09-24T09:55:20;100398.38;;;23.49;33.29
10310;BME280;5200;43.236;27.986;2022-09-24T09:57:47;100408.41;;;23.29;34.02
10310;BME280;5200;43.236;27.986;2022-09-24T10:00:24;100395.63;;;23.17;32.47
10310;BME280;5200;43.236;27.986;2022-09-24T10:02:52;100400.00;;;23.05;33.98
10310;BME280;5200;43.236;27.986;2022-09-24T10:05:21;100410.28;;;23.21;35.04
10310;BME280;5200;43.236;27.986;2022-09-24T10:07:53;100400.19;;;23.10;34.45
10310;BME280;5200;43.236;27.986;2022-09-24T10:10:23;100392.75;;;22.86;32.25
10310;BME280;5200;43.236;27.986;2022-09-24T10:12:52;100390.75;;;22.28;33.41
10310;BME280;5200;43.236;27.986;2022-09-24T10:15:21;100387.03;;;22.42;33.82
10310;BME280;5200;43.236;27.986;2022-09-24T10:17:51;100383.13;;;22.58;32.83
10310;BME280;5200;43.236;27.986;2022-09-24T10:20:23;100380.22;;;22.66;32.32
10310;BME280;5200;43.236;27.986;2022-09-24T10:22:55;100389.91;;;23.00;32.41
10310;BME280;5200;43.236;27.986;2022-09-24T10:25:25;100371.84;;;23.28;31.19
10310;BME280;5200;43.236;27.986;2022-09-24T10:27:53;100375.63;;;23.58;31.67
10310;BME280;5200;43.236;27.986;2022-09-24T10:30:50;100378.63;;;23.82;32.32
10310;BME280;5200;43.236;27.986;2022-09-24T10:33:18;100366.13;;;24.01;31.49
10310;BME280;5200;43.236;27.986;2022-09-24T10:35:47;100367.84;;;24.20;31.13
10310;BME280;5200;43.236;27.986;2022-09-24T10:38:15;100376.13;;;24.19;31.10
10310;BME280;5200;43.236;27.986;2022-09-24T10:40:43;100374.03;;;24.21;30.41
10310;BME280;5200;43.236;27.986;2022-09-24T10:43:15;100368.91;;;24.13;30.67
10310;BME280;5200;43.236;27.986;2022-09-24T10:46:08;100353.78;;;23.93;31.04
10310;BME280;5200;43.236;27.986;2022-09-24T10:48:42;100372.66;;;23.80;31.16
10310;BME280;5200;43.236;27.986;2022-09-24T10:51:25;100364.66;;;24.05;30.84
10310;BME280;5200;43.236;27.986;2022-09-24T10:54:03;100366.53;;;24.30;29.54
10310;BME280;5200;43.236;27.986;2022-09-24T10:56:37;100365.78;;;24.22;29.97
10310;BME280;5200;43.236;27.986;2022-09-24T10:59:16;100356.59;;;24.30;29.86
10310;BME280;5200;43.236;27.986;2022-09-24T11:01:56;100375.59;;;24.35;29.96
10310;BME280;5200;43.236;27.986;2022-09-24T11:04:46;100368.38;;;24.29;29.57
10310;BME280;5200;43.236;27.986;2022-09-24T11:07:33;100368.06;;;24.19;30.14
10310;BME280;5200;43.236;27.986;2022-09-24T11:10:14;100383.03;;;24.33;29.84
10310;BME280;5200;43.236;27.986;2022-09-24T11:12:48;100356.09;;;24.40;29.27
10310;BME280;5200;43.236;27.986;2022-09-24T11:15:27;100370.09;;;24.23;29.55
10310;BME280;5200;43.236;27.986;2022-09-24T11:18:05;100365.03;;;24.09;29.85
10310;BME280;5200;43.236;27.986;2022-09-24T11:20:35;100354.38;;;23.95;29.87
10310;BME280;5200;43.236;27.986;2022-09-24T11:23:18;100357.53;;;23.86;30.41
10310;BME280;5200;43.236;27.986;2022-09-24T11:25:54;100357.69;;;23.97;30.80
10310;BME280;5200;43.236;27.986;2022-09-24T11:28:43;100355.16;;;24.02;30.04
10310;BME280;5200;43.236;27.986;2022-09-24T11:31:22;100353.13;;;23.98;29.84
10310;BME280;5200;43.236;27.986;2022-09-24T11:34:21;100339.88;;;23.96;29.96
10310;BME280;5200;43.236;27.986;2022-09-24T11:37:06;100339.81;;;24.10;29.15
10310;BME280;5200;43.236;27.986;2022-09-24T11:39:50;100334.88;;;24.07;29.36
10310;BME280;5200;43.236;27.986;2022-09-24T11:42:26;100350.75;;;23.83;29.68
10310;BME280;5200;43.236;27.986;2022-09-24T11:45:09;100357.81;;;23.71;28.83
10310;BME280;5200;43.236;27.986;2022-09-24T11:47:51;100343.50;;;23.45;29.78
10310;BME280;5200;43.236;27.986;2022-09-24T11:50:34;100353.88;;;23.28;30.04
10310;BME280;5200;43.236;27.986;2022-09-24T11:53:11;100352.69;;;23.17;30.19
10310;BME280;5200;43.236;27.986;2022-09-24T11:55:47;100346.88;;;23.20;30.03
10310;BME280;5200;43.236;27.986;2022-09-24T11:58:19;100355.34;;;23.24;30.23
10310;BME280;5200;43.236;27.986;2022-09-24T12:00:53;100354.38;;;23.05;30.30
10310;BME280;5200;43.236;27.986;2022-09-24T12:03:23;100355.63;;;22.96;29.84
10310;BME280;5200;43.236;27.986;2022-09-24T12:05:55;100356.88;;;23.00;30.92
10310;BME280;5200;43.236;27.986;2022-09-24T12:08:28;100363.69;;;22.76;31.26
10310;BME280;5200;43.236;27.986;2022-09-24T12:11:03;100353.38;;;22.66;33.33
10310;BME280;5200;43.236;27.986;2022-09-24T12:13:35;100348.66;;;22.68;33.40
10310;BME280;5200;43.236;27.986;2022-09-24T12:16:09;100343.28;;;22.82;30.79
10310;BME280;5200;43.236;27.986;2022-09-24T12:18:43;100345.34;;;22.66;34.51
10310;BME280;5200;43.236;27.986;2022-09-24T12:21:24;100354.03;;;22.42;33.63
10310;BME280;5200;43.236;27.986;2022-09-24T12:23:54;100351.53;;;22.67;32.32
10310;BME280;5200;43.236;27.986;2022-09-24T12:26:27;100348.41;;;22.90;31.06
10310;BME280;5200;43.236;27.986;2022-09-24T12:28:58;100352.38;;;22.61;33.04
10310;BME280;5200;43.236;27.986;2022-09-24T12:31:52;100352.31;;;21.87;36.38
10310;BME280;5200;43.236;27.986;2022-09-24T12:34:44;100356.34;;;21.50;37.79
10310;BME280;5200;43.236;27.986;2022-09-24T12:37:19;100353.38;;;21.38;34.92
10310;BME280;5200;43.236;27.986;2022-09-24T12:39:52;100352.19;;;21.41;35.97
10310;BME280;5200;43.236;27.986;2022-09-24T12:42:23;100343.06;;;21.28;38.22
10310;BME280;5200;43.236;27.986;2022-09-24T12:44:57;100346.34;;;21.30;35.45
10310;BME280;5200;43.236;27.986;2022-09-24T12:47:27;100350.56;;;21.46;34.31
10310;BME280;5200;43.236;27.986;2022-09-24T12:49:57;100343.41;;;21.67;34.27
10310;BME280;5200;43.236;27.986;2022-09-24T12:52:30;100333.78;;;21.92;35.32
10310;BME280;5200;43.236;27.986;2022-09-24T12:54:58;100341.81;;;21.92;35.70
10310;BME280;5200;43.236;27.986;2022-09-24T12:57:29;100347.19;;;21.92;35.06
10310;BME280;5200;43.236;27.986;2022-09-24T12:59:59;100340.38;;;21.90;34.45
10310;BME280;5200;43.236;27.986;2022-09-24T13:02:28;100337.06;;;21.81;31.85
10310;BME280;5200;43.236;27.986;2022-09-24T13:05:14;100350.66;;;21.86;30.79
10310;BME280;5200;43.236;27.986;2022-09-24T13:07:55;100344.91;;;21.96;31.21
10310;BME280;5200;43.236;27.986;2022-09-24T13:10:24;100346.16;;;22.07;30.59
10310;BME280;5200;43.236;27.986;2022-09-24T13:12:53;100347.84;;;22.21;30.32
10310;BME280;5200;43.236;27.986;2022-09-24T13:15:39;100341.06;;;22.25;29.93
10310;BME280;5200;43.236;27.986;2022-09-24T13:18:19;100341.22;;;22.17;30.57
10310;BME280;5200;43.236;27.986;2022-09-24T13:20:58;100344.50;;;22.06;30.45
10310;BME280;5200;43.236;27.986;2022-09-24T13:23:32;100339.75;;;21.94;30.27